createdAt,value
2019-03-29T00:00:21.160Z,0.00
2019-03-29T00:01:21.150Z,0.00
2019-03-29T00:02:21.145Z,0.00
2019-03-29T00:03:21.133Z,0.00
2019-03-29T00:04:21.144Z,0.00
2019-03-29T00:05:21.109Z,0.00
2019-03-29T00:06:21.101Z,0.00
2019-03-29T00:07:21.096Z,0.00
2019-03-29T00:08:21.082Z,0.00
2019-03-29T00:09:21.067Z,0.00
2019-03-29T00:10:21.151Z,0.00
2019-03-29T00:11:21.069Z,0.00
2019-03-29T00:12:21.039Z,0.00
2019-03-29T00:13:21.063Z,0.00
2019-03-29T00:14:23.485Z,0.00
2019-03-29T00:15:21.008Z,0.00
2019-03-29T00:16:21.021Z,0.00
2019-03-29T00:17:20.992Z,0.00
2019-03-29T00:18:20.977Z,0.00
2019-03-29T00:19:21.000Z,0.00
2019-03-29T00:20:20.988Z,0.00
2019-03-29T00:21:20.953Z,0.00
2019-03-29T00:22:20.955Z,0.00
2019-03-29T00:23:20.926Z,0.00
2019-03-29T00:24:20.917Z,0.00
2019-03-29T00:25:20.911Z,0.00
2019-03-29T00:26:20.897Z,0.00
2019-03-29T00:27:20.901Z,0.00
2019-03-29T00:28:20.889Z,0.00
2019-03-29T00:29:20.866Z,0.00
2019-03-29T00:30:21.979Z,0.00
2019-03-29T00:31:20.846Z,0.00
2019-03-29T00:32:20.832Z,0.00
2019-03-29T00:33:20.821Z,0.00
2019-03-29T00:34:20.836Z,0.00
2019-03-29T00:35:20.802Z,0.00
2019-03-29T00:36:20.794Z,0.00
2019-03-29T00:37:20.782Z,0.00
2019-03-29T00:38:20.796Z,0.00
2019-03-29T00:39:20.782Z,0.00
2019-03-29T00:40:21.583Z,0.00
2019-03-29T00:41:20.741Z,0.00
2019-03-29T00:42:20.730Z,0.00
2019-03-29T00:43:20.733Z,0.00
2019-03-29T00:44:20.719Z,0.00
2019-03-29T00:45:20.701Z,0.00
2019-03-29T00:46:20.708Z,0.00
2019-03-29T00:47:20.676Z,0.00
2019-03-29T00:48:21.243Z,0.00
2019-03-29T00:49:20.660Z,0.00
2019-03-29T00:50:20.753Z,0.00
2019-03-29T00:51:20.638Z,0.00
2019-03-29T00:52:20.641Z,0.00
2019-03-29T00:53:20.619Z,0.00
2019-03-29T00:54:20.603Z,0.00
2019-03-29T00:55:20.957Z,0.00
2019-03-29T00:56:20.584Z,0.00
2019-03-29T00:57:20.579Z,0.00
2019-03-29T00:58:20.585Z,0.00
2019-03-29T00:59:20.567Z,0.00
2019-03-29T01:00:20.544Z,0.00
2019-03-29T01:01:20.538Z,0.00
2019-03-29T01:02:20.522Z,0.00
2019-03-29T01:03:20.514Z,0.00
2019-03-29T01:04:20.517Z,0.00
2019-03-29T01:05:21.004Z,0.00
2019-03-29T01:06:20.491Z,0.00
2019-03-29T01:07:20.478Z,0.00
2019-03-29T01:08:20.460Z,0.00
2019-03-29T01:09:20.455Z,0.00
2019-03-29T01:10:20.482Z,0.00
2019-03-29T01:11:20.429Z,0.00
2019-03-29T01:12:20.419Z,0.00
2019-03-29T01:13:20.413Z,0.00
2019-03-29T01:14:20.400Z,0.00
2019-03-29T01:15:20.391Z,0.00
2019-03-29T01:16:20.400Z,0.00
2019-03-29T01:17:20.378Z,0.00
2019-03-29T01:18:20.359Z,0.00
2019-03-29T01:19:20.380Z,0.00
2019-03-29T01:20:20.381Z,0.00
2019-03-29T01:21:20.351Z,0.00
2019-03-29T01:22:20.335Z,0.00
2019-03-29T01:23:20.329Z,0.00
2019-03-29T01:24:20.295Z,0.00
2019-03-29T01:25:20.286Z,0.00
2019-03-29T01:26:20.287Z,0.00
2019-03-29T01:27:20.266Z,0.00
2019-03-29T01:28:20.278Z,0.00
2019-03-29T01:29:20.246Z,0.00
2019-03-29T01:30:20.238Z,0.00
2019-03-29T01:31:20.227Z,0.00
2019-03-29T01:32:20.215Z,0.00
2019-03-29T01:33:20.204Z,0.00
2019-03-29T01:34:20.226Z,0.00
2019-03-29T01:35:20.188Z,0.00
2019-03-29T01:36:20.172Z,0.00
2019-03-29T01:37:20.174Z,0.00
2019-03-29T01:38:22.132Z,0.00
2019-03-29T01:39:20.152Z,0.00
2019-03-29T01:40:20.153Z,0.00
2019-03-29T01:41:20.129Z,0.00
2019-03-29T01:42:20.116Z,0.00
2019-03-29T01:43:20.109Z,0.00
2019-03-29T01:44:20.095Z,0.00
2019-03-29T01:45:20.241Z,0.00
2019-03-29T01:46:20.119Z,0.00
2019-03-29T01:47:20.076Z,0.00
2019-03-29T01:48:20.070Z,0.00
2019-03-29T01:49:20.048Z,0.00
2019-03-29T01:50:20.033Z,0.00
2019-03-29T01:51:20.024Z,0.00
2019-03-29T01:52:20.074Z,0.00
2019-03-29T01:53:20.010Z,0.00
2019-03-29T01:54:19.991Z,0.00
2019-03-29T01:55:19.979Z,0.00
2019-03-29T01:56:19.973Z,0.00
2019-03-29T01:57:19.958Z,0.00
2019-03-29T01:58:19.981Z,0.00
2019-03-29T01:59:19.937Z,0.00
2019-03-29T02:00:19.936Z,0.00
2019-03-29T02:01:19.933Z,0.00
2019-03-29T02:02:20.279Z,0.00
2019-03-29T02:03:19.897Z,0.00
2019-03-29T02:04:19.908Z,0.00
2019-03-29T02:05:19.881Z,0.00
2019-03-29T02:06:19.911Z,0.00
2019-03-29T02:07:19.865Z,0.00
2019-03-29T02:08:19.850Z,0.00
2019-03-29T02:09:19.836Z,0.00
2019-03-29T02:10:19.847Z,0.00
2019-03-29T02:11:19.815Z,0.00
2019-03-29T02:12:19.819Z,0.00
2019-03-29T02:13:19.797Z,0.00
2019-03-29T02:14:19.782Z,0.00
2019-03-29T02:15:19.775Z,0.00
2019-03-29T02:16:19.776Z,0.00
2019-03-29T02:17:19.756Z,0.00
2019-03-29T02:18:19.742Z,0.00
2019-03-29T02:19:19.736Z,0.00
2019-03-29T02:20:19.723Z,0.00
2019-03-29T02:21:19.717Z,0.00
2019-03-29T02:22:19.722Z,0.00
2019-03-29T02:23:19.697Z,0.00
2019-03-29T02:24:19.693Z,0.00
2019-03-29T02:25:19.674Z,0.00
2019-03-29T02:26:19.663Z,0.00
2019-03-29T02:27:19.670Z,0.00
2019-03-29T02:28:19.655Z,0.00
2019-03-29T02:29:19.633Z,0.00
2019-03-29T02:30:19.625Z,0.00
2019-03-29T02:31:19.606Z,0.00
2019-03-29T02:32:19.598Z,0.00
2019-03-29T02:33:20.623Z,0.00
2019-03-29T02:34:19.612Z,0.00
2019-03-29T02:35:19.577Z,0.00
2019-03-29T02:36:19.561Z,0.00
2019-03-29T02:37:19.555Z,0.00
2019-03-29T02:38:19.535Z,0.00
2019-03-29T02:39:19.536Z,0.00
2019-03-29T02:40:19.531Z,0.00
2019-03-29T02:41:19.715Z,0.00
2019-03-29T02:42:19.490Z,0.00
2019-03-29T02:43:19.492Z,0.00
2019-03-29T02:44:19.477Z,0.00
2019-03-29T02:45:19.458Z,0.00
2019-03-29T02:46:19.471Z,0.00
2019-03-29T02:47:19.447Z,0.00
2019-03-29T02:48:19.444Z,0.00
2019-03-29T02:49:19.419Z,0.00
2019-03-29T02:50:19.427Z,0.00
2019-03-29T02:51:19.396Z,0.00
2019-03-29T02:52:19.404Z,0.00
2019-03-29T02:53:19.394Z,0.00
2019-03-29T02:54:19.392Z,0.00
2019-03-29T02:55:19.354Z,0.00
2019-03-29T02:56:19.337Z,0.00
2019-03-29T02:57:19.330Z,0.00
2019-03-29T02:58:19.371Z,0.00
2019-03-29T02:59:19.313Z,0.00
2019-03-29T03:00:19.295Z,0.00
2019-03-29T03:01:19.289Z,0.00
2019-03-29T03:02:19.287Z,0.00
2019-03-29T03:03:19.269Z,0.00
2019-03-29T03:04:19.283Z,0.00
2019-03-29T03:05:19.262Z,0.00
2019-03-29T03:06:19.240Z,0.00
2019-03-29T03:07:19.224Z,0.00
2019-03-29T03:08:19.234Z,0.00
2019-03-29T03:09:19.202Z,0.00
2019-03-29T03:10:19.210Z,0.00
2019-03-29T03:11:19.183Z,0.00
2019-03-29T03:12:19.174Z,0.00
2019-03-29T03:13:19.164Z,0.00
2019-03-29T03:14:19.147Z,0.00
2019-03-29T03:15:19.141Z,0.00
2019-03-29T03:16:19.145Z,0.00
2019-03-29T03:17:19.126Z,0.00
2019-03-29T03:18:19.102Z,0.00
2019-03-29T03:19:19.094Z,0.00
2019-03-29T03:20:19.085Z,0.00
2019-03-29T03:21:19.095Z,0.00
2019-03-29T03:22:19.077Z,0.00
2019-03-29T03:23:19.051Z,0.00
2019-03-29T03:24:19.036Z,0.00
2019-03-29T03:25:19.036Z,0.00
2019-03-29T03:26:19.027Z,0.00
2019-03-29T03:27:19.035Z,0.00
2019-03-29T03:28:19.015Z,0.00
2019-03-29T03:29:18.988Z,0.00
2019-03-29T03:30:18.977Z,0.00
2019-03-29T03:31:18.960Z,0.00
2019-03-29T03:32:18.948Z,0.00
2019-03-29T03:33:18.950Z,0.00
2019-03-29T03:34:18.954Z,0.00
2019-03-29T03:35:18.918Z,0.00
2019-03-29T03:36:18.907Z,0.00
2019-03-29T03:37:18.903Z,0.00
2019-03-29T03:38:18.886Z,0.00
2019-03-29T03:39:31.422Z,0.00
2019-03-29T03:40:19.893Z,0.00
2019-03-29T03:41:19.002Z,0.00
2019-03-29T03:42:18.854Z,0.00
2019-03-29T03:43:18.836Z,0.00
2019-03-29T03:44:18.852Z,0.00
2019-03-29T03:45:18.835Z,0.00
2019-03-29T03:46:18.838Z,0.00
2019-03-29T03:47:18.786Z,0.00
2019-03-29T03:48:18.774Z,0.00
2019-03-29T03:49:18.766Z,0.00
2019-03-29T03:50:18.818Z,0.00
2019-03-29T03:51:18.760Z,0.00
2019-03-29T03:52:18.757Z,0.00
2019-03-29T03:53:18.736Z,0.00
2019-03-29T03:54:18.723Z,0.00
2019-03-29T03:55:18.696Z,0.00
2019-03-29T03:56:18.685Z,0.00
2019-03-29T03:57:18.677Z,0.00
2019-03-29T03:58:18.687Z,0.00
2019-03-29T03:59:18.655Z,0.00
2019-03-29T04:00:18.647Z,0.00
2019-03-29T04:01:18.635Z,0.00
2019-03-29T04:02:18.622Z,0.00
2019-03-29T04:03:18.612Z,0.00
2019-03-29T04:04:18.619Z,0.00
2019-03-29T04:05:18.617Z,0.00
2019-03-29T04:06:18.587Z,0.00
2019-03-29T04:07:18.574Z,0.00
2019-03-29T04:08:18.559Z,0.00
2019-03-29T04:09:18.568Z,0.00
2019-03-29T04:10:18.568Z,0.00
2019-03-29T04:11:18.524Z,0.00
2019-03-29T04:12:18.525Z,0.00
2019-03-29T04:13:18.517Z,0.00
2019-03-29T04:14:18.511Z,0.00
2019-03-29T04:15:18.481Z,0.00
2019-03-29T04:16:18.517Z,0.00
2019-03-29T04:17:18.465Z,0.00
2019-03-29T04:18:18.455Z,0.00
2019-03-29T04:19:18.456Z,0.00
2019-03-29T04:20:18.429Z,0.00
2019-03-29T04:21:18.418Z,0.00
2019-03-29T04:22:18.428Z,0.00
2019-03-29T04:23:18.455Z,0.00
2019-03-29T04:24:18.389Z,0.00
2019-03-29T04:25:18.379Z,0.00
2019-03-29T04:26:18.361Z,0.00
2019-03-29T04:27:18.352Z,0.00
2019-03-29T04:28:18.358Z,0.00
2019-03-29T04:29:18.332Z,0.00
2019-03-29T04:30:18.325Z,0.00
2019-03-29T04:31:18.308Z,0.00
2019-03-29T04:32:18.303Z,0.00
2019-03-29T04:33:18.320Z,0.00
2019-03-29T04:34:18.301Z,0.00
2019-03-29T04:35:18.263Z,0.00
2019-03-29T04:36:18.258Z,0.00
2019-03-29T04:37:18.241Z,0.00
2019-03-29T04:38:18.232Z,0.00
2019-03-29T04:39:18.229Z,0.00
2019-03-29T04:40:18.229Z,0.00
2019-03-29T04:41:18.200Z,0.00
2019-03-29T04:42:18.189Z,0.00
2019-03-29T04:43:18.179Z,0.00
2019-03-29T04:44:18.174Z,0.00
2019-03-29T04:45:18.158Z,0.00
2019-03-29T04:46:18.162Z,0.00
2019-03-29T04:47:18.145Z,0.00
2019-03-29T04:48:18.130Z,0.00
2019-03-29T04:49:18.113Z,0.00
2019-03-29T04:50:18.105Z,0.00
2019-03-29T04:51:18.093Z,0.00
2019-03-29T04:52:18.105Z,0.00
2019-03-29T04:53:18.075Z,0.00
2019-03-29T04:54:18.065Z,0.00
2019-03-29T04:55:18.052Z,0.00
2019-03-29T04:56:18.047Z,0.00
2019-03-29T04:57:18.045Z,0.00
2019-03-29T04:58:18.046Z,0.00
2019-03-29T04:59:18.009Z,0.00
2019-03-29T05:00:18.009Z,0.00
2019-03-29T05:01:17.990Z,0.00
2019-03-29T05:02:17.983Z,0.00
2019-03-29T05:03:17.967Z,5.62
2019-03-29T05:04:17.978Z,5.62
2019-03-29T05:05:17.946Z,5.62
2019-03-29T05:06:17.937Z,5.62
2019-03-29T05:07:17.928Z,5.62
2019-03-29T05:08:17.914Z,5.62
2019-03-29T05:09:17.903Z,11.25
2019-03-29T05:10:42.521Z,11.25
2019-03-29T05:11:18.888Z,11.25
2019-03-29T05:12:17.869Z,11.25
2019-03-29T05:13:17.861Z,11.25
2019-03-29T05:14:17.846Z,16.88
2019-03-29T05:15:17.870Z,16.88
2019-03-29T05:16:17.848Z,16.88
2019-03-29T05:17:17.820Z,22.50
2019-03-29T05:18:17.802Z,22.50
2019-03-29T05:19:17.796Z,22.50
2019-03-29T05:20:17.792Z,28.12
2019-03-29T05:21:17.778Z,28.12
2019-03-29T05:22:17.785Z,28.12
2019-03-29T05:23:17.766Z,33.75
2019-03-29T05:24:17.744Z,33.75
2019-03-29T05:25:17.736Z,33.75
2019-03-29T05:26:17.740Z,39.38
2019-03-29T05:27:17.711Z,39.38
2019-03-29T05:28:17.718Z,45.00
2019-03-29T05:29:17.695Z,45.00
2019-03-29T05:30:17.690Z,50.62
2019-03-29T05:31:17.664Z,50.62
2019-03-29T05:32:17.649Z,56.25
2019-03-29T05:33:17.640Z,61.88
2019-03-29T05:34:17.650Z,61.88
2019-03-29T05:35:17.625Z,67.50
2019-03-29T05:36:17.617Z,67.50
2019-03-29T05:37:17.603Z,78.75
2019-03-29T05:38:17.609Z,84.38
2019-03-29T05:39:17.587Z,90.00
2019-03-29T05:40:17.581Z,95.62
2019-03-29T05:41:17.554Z,101.25
2019-03-29T05:42:17.548Z,106.88
2019-03-29T05:43:17.539Z,112.50
2019-03-29T05:44:17.538Z,118.12
2019-03-29T05:45:17.519Z,118.12
2019-03-29T05:46:17.522Z,123.75
2019-03-29T05:47:17.494Z,129.38
2019-03-29T05:48:17.484Z,135.00
2019-03-29T05:49:17.471Z,140.62
2019-03-29T05:50:17.460Z,146.25
2019-03-29T05:51:17.456Z,151.88
2019-03-29T05:52:17.480Z,157.50
2019-03-29T05:53:17.438Z,163.12
2019-03-29T05:54:17.425Z,168.75
2019-03-29T05:55:17.406Z,174.38
2019-03-29T05:56:17.398Z,180.00
2019-03-29T05:57:17.399Z,185.62
2019-03-29T05:58:17.424Z,191.25
2019-03-29T05:59:17.367Z,196.88
2019-03-29T06:00:17.354Z,196.88
2019-03-29T06:01:17.350Z,202.50
2019-03-29T06:02:17.341Z,208.12
2019-03-29T06:03:17.336Z,213.75
2019-03-29T06:04:17.333Z,219.38
2019-03-29T06:05:17.304Z,225.00
2019-03-29T06:06:17.298Z,230.62
2019-03-29T06:07:17.287Z,230.62
2019-03-29T06:08:17.275Z,236.25
2019-03-29T06:09:17.264Z,241.88
2019-03-29T06:10:17.273Z,247.50
2019-03-29T06:11:17.242Z,253.12
2019-03-29T06:12:17.232Z,258.75
2019-03-29T06:13:17.221Z,258.75
2019-03-29T06:14:17.211Z,270.00
2019-03-29T06:15:17.204Z,275.62
2019-03-29T06:16:17.217Z,281.25
2019-03-29T06:17:17.183Z,286.88
2019-03-29T06:18:17.171Z,292.50
2019-03-29T06:19:17.165Z,292.50
2019-03-29T06:20:17.148Z,298.12
2019-03-29T06:21:17.154Z,303.75
2019-03-29T06:22:17.177Z,309.38
2019-03-29T06:23:17.123Z,315.00
2019-03-29T06:24:17.120Z,315.00
2019-03-29T06:25:17.113Z,320.62
2019-03-29T06:26:17.099Z,326.25
2019-03-29T06:27:17.073Z,326.25
2019-03-29T06:28:17.082Z,331.88
2019-03-29T06:29:17.058Z,337.50
2019-03-29T06:30:17.042Z,337.50
2019-03-29T06:31:17.033Z,343.12
2019-03-29T06:32:17.021Z,348.75
2019-03-29T06:33:17.007Z,354.38
2019-03-29T06:34:17.016Z,354.38
2019-03-29T06:35:16.988Z,354.38
2019-03-29T06:36:16.975Z,360.00
2019-03-29T06:37:16.963Z,388.12
2019-03-29T06:38:16.949Z,416.25
2019-03-29T06:39:16.952Z,444.38
2019-03-29T06:40:16.957Z,466.88
2019-03-29T06:41:16.945Z,495.00
2019-03-29T06:42:16.906Z,506.25
2019-03-29T06:43:16.901Z,511.88
2019-03-29T06:44:16.924Z,528.75
2019-03-29T06:45:16.873Z,528.75
2019-03-29T06:46:16.880Z,551.25
2019-03-29T06:47:16.849Z,568.12
2019-03-29T06:48:16.835Z,596.25
2019-03-29T06:49:16.829Z,630.00
2019-03-29T06:50:16.820Z,742.50
2019-03-29T06:51:16.807Z,860.62
2019-03-29T06:52:16.806Z,939.38
2019-03-29T06:53:16.779Z,1023.75
2019-03-29T06:54:16.768Z,1085.62
2019-03-29T06:55:16.755Z,1192.50
2019-03-29T06:56:16.743Z,1226.25
2019-03-29T06:57:16.731Z,1186.88
2019-03-29T06:58:16.736Z,1192.50
2019-03-29T06:59:16.707Z,1147.50
2019-03-29T07:00:16.727Z,1153.12
2019-03-29T07:01:16.729Z,1209.38
2019-03-29T07:02:16.672Z,1276.88
2019-03-29T07:03:16.659Z,1310.62
2019-03-29T07:04:16.671Z,1305.00
2019-03-29T07:05:16.639Z,1254.38
2019-03-29T07:06:16.628Z,1293.75
2019-03-29T07:07:16.617Z,1361.25
2019-03-29T07:08:16.605Z,1400.62
2019-03-29T07:09:16.593Z,1462.50
2019-03-29T07:10:16.614Z,1530.00
2019-03-29T07:11:18.079Z,1535.62
2019-03-29T07:12:16.563Z,1490.62
2019-03-29T07:13:16.550Z,1473.75
2019-03-29T07:14:16.536Z,1456.88
2019-03-29T07:15:16.524Z,1479.38
2019-03-29T07:16:16.538Z,1485.00
2019-03-29T07:17:16.505Z,1473.75
2019-03-29T07:18:16.491Z,1440.00
2019-03-29T07:19:16.486Z,1445.62
2019-03-29T07:20:16.471Z,1513.12
2019-03-29T07:21:21.839Z,1501.88
2019-03-29T07:22:17.469Z,1541.25
2019-03-29T07:23:16.438Z,1524.38
2019-03-29T07:24:16.431Z,1501.88
2019-03-29T07:25:16.416Z,1524.38
2019-03-29T07:26:16.402Z,1535.62
2019-03-29T07:27:16.389Z,1580.62
2019-03-29T07:28:16.410Z,1608.75
2019-03-29T07:29:16.368Z,1625.62
2019-03-29T07:30:16.355Z,1642.50
2019-03-29T07:31:16.343Z,1558.12
2019-03-29T07:32:16.333Z,1507.50
2019-03-29T07:33:16.329Z,1501.88
2019-03-29T07:34:16.328Z,1451.25
2019-03-29T07:35:16.298Z,1479.38
2019-03-29T07:36:16.287Z,1603.12
2019-03-29T07:37:16.287Z,1642.50
2019-03-29T07:38:16.282Z,1591.88
2019-03-29T07:39:16.255Z,1597.50
2019-03-29T07:40:16.265Z,1693.12
2019-03-29T07:41:30.670Z,1743.75
2019-03-29T07:42:17.220Z,1726.88
2019-03-29T07:43:16.210Z,1693.12
2019-03-29T07:44:16.224Z,1738.12
2019-03-29T07:45:16.189Z,1783.12
2019-03-29T07:46:16.190Z,1771.88
2019-03-29T07:47:16.164Z,1800.00
2019-03-29T07:48:16.153Z,1800.00
2019-03-29T07:49:16.144Z,1816.88
2019-03-29T07:50:19.030Z,1828.12
2019-03-29T07:51:16.126Z,1822.50
2019-03-29T07:52:16.127Z,1828.12
2019-03-29T07:53:16.101Z,1822.50
2019-03-29T07:54:16.085Z,1828.12
2019-03-29T07:55:16.108Z,1850.62
2019-03-29T07:56:16.064Z,1839.38
2019-03-29T07:57:16.053Z,1884.38
2019-03-29T07:58:16.063Z,1839.38
2019-03-29T07:59:16.034Z,1856.25
2019-03-29T08:00:16.455Z,1929.38
2019-03-29T08:01:16.008Z,1912.50
2019-03-29T08:02:16.000Z,1895.62
2019-03-29T08:03:15.988Z,1895.62
2019-03-29T08:04:15.991Z,1912.50
2019-03-29T08:05:16.014Z,1918.12
2019-03-29T08:06:15.954Z,1873.12
2019-03-29T08:07:26.635Z,1884.38
2019-03-29T08:08:24.153Z,1991.25
2019-03-29T08:09:22.630Z,1839.38
2019-03-29T08:10:25.957Z,1771.88
2019-03-29T08:11:25.910Z,1833.75
2019-03-29T08:12:16.902Z,1873.12
2019-03-29T08:13:16.267Z,1850.62
2019-03-29T08:14:15.866Z,1777.50
2019-03-29T08:15:15.872Z,1901.25
2019-03-29T08:16:15.843Z,2002.50
2019-03-29T08:17:15.831Z,1991.25
2019-03-29T08:18:15.828Z,2008.12
2019-03-29T08:19:15.810Z,2013.75
2019-03-29T08:20:38.196Z,1963.12
2019-03-29T08:21:16.806Z,2002.50
2019-03-29T08:22:15.775Z,2064.38
2019-03-29T08:23:15.765Z,2013.75
2019-03-29T08:24:15.755Z,1996.88
2019-03-29T08:25:15.741Z,1968.75
2019-03-29T08:26:15.738Z,1968.75
2019-03-29T08:27:15.737Z,2064.38
2019-03-29T08:28:15.711Z,2103.75
2019-03-29T08:29:15.698Z,2098.12
2019-03-29T08:30:15.690Z,2030.62
2019-03-29T08:31:15.679Z,1968.75
2019-03-29T08:32:15.677Z,1991.25
2019-03-29T08:33:15.671Z,2058.75
2019-03-29T08:34:15.645Z,2092.50
2019-03-29T08:35:15.632Z,2064.38
2019-03-29T08:36:15.623Z,2053.12
2019-03-29T08:37:15.611Z,2036.25
2019-03-29T08:38:15.602Z,2047.50
2019-03-29T08:39:27.394Z,2103.75
2019-03-29T08:40:16.579Z,2098.12
2019-03-29T08:41:15.568Z,2081.25
2019-03-29T08:42:18.382Z,2025.00
2019-03-29T08:43:15.544Z,2041.88
2019-03-29T08:44:15.536Z,2143.12
2019-03-29T08:45:15.630Z,2126.25
2019-03-29T08:46:15.512Z,2103.75
2019-03-29T08:47:15.512Z,2115.00
2019-03-29T08:48:15.496Z,2126.25
2019-03-29T08:49:17.011Z,2081.25
2019-03-29T08:50:15.467Z,2081.25
2019-03-29T08:51:15.472Z,2075.62
2019-03-29T08:52:15.448Z,2036.25
2019-03-29T08:53:15.438Z,2047.50
2019-03-29T08:54:15.432Z,2075.62
2019-03-29T08:55:17.489Z,2086.88
2019-03-29T08:56:15.409Z,2075.62
2019-03-29T08:57:15.408Z,2064.38
2019-03-29T08:58:15.382Z,2120.62
2019-03-29T08:59:17.492Z,2143.12
2019-03-29T09:00:15.961Z,2137.50
2019-03-29T09:01:15.351Z,2086.88
2019-03-29T09:02:15.335Z,2160.00
2019-03-29T09:03:15.350Z,2115.00
2019-03-29T09:04:15.314Z,1996.88
2019-03-29T09:05:15.331Z,1929.38
2019-03-29T09:06:15.298Z,1946.25
2019-03-29T09:07:15.283Z,1946.25
2019-03-29T09:08:15.271Z,1957.50
2019-03-29T09:09:15.275Z,1890.00
2019-03-29T09:10:15.253Z,1923.75
2019-03-29T09:11:15.238Z,1923.75
2019-03-29T09:12:15.253Z,1867.50
2019-03-29T09:13:15.217Z,1861.88
2019-03-29T09:14:15.207Z,1923.75
2019-03-29T09:15:15.213Z,2030.62
2019-03-29T09:16:15.185Z,2064.38
2019-03-29T09:17:15.174Z,2115.00
2019-03-29T09:18:15.162Z,2036.25
2019-03-29T09:19:15.152Z,2030.62
2019-03-29T09:20:15.143Z,2109.38
2019-03-29T09:21:15.146Z,2160.00
2019-03-29T09:22:15.121Z,2176.88
2019-03-29T09:23:15.111Z,2137.50
2019-03-29T09:24:21.790Z,2075.62
2019-03-29T09:25:16.087Z,2081.25
2019-03-29T09:26:15.082Z,2081.25
2019-03-29T09:27:15.089Z,2120.62
2019-03-29T09:28:15.077Z,2148.75
2019-03-29T09:29:15.044Z,2199.38
2019-03-29T09:30:15.054Z,2188.12
2019-03-29T09:31:15.027Z,2126.25
2019-03-29T09:32:15.013Z,2086.88
2019-03-29T09:33:15.031Z,2070.00
2019-03-29T09:34:14.994Z,2092.50
2019-03-29T09:35:14.998Z,2143.12
2019-03-29T09:36:15.001Z,2160.00
2019-03-29T09:37:14.981Z,2244.38
2019-03-29T09:38:14.957Z,2216.25
2019-03-29T09:39:15.087Z,2261.25
2019-03-29T09:40:14.930Z,2250.00
2019-03-29T09:41:14.942Z,2238.75
2019-03-29T09:42:28.195Z,2199.38
2019-03-29T09:43:15.893Z,2182.50
2019-03-29T09:44:14.886Z,2176.88
2019-03-29T09:45:14.889Z,2176.88
2019-03-29T09:46:14.864Z,2227.50
2019-03-29T09:47:14.851Z,2261.25
2019-03-29T09:48:14.845Z,2261.25
2019-03-29T09:49:14.832Z,2295.00
2019-03-29T09:50:14.841Z,2272.50
2019-03-29T09:51:14.828Z,2244.38
2019-03-29T09:52:14.800Z,2221.88
2019-03-29T09:53:14.788Z,2221.88
2019-03-29T09:54:14.777Z,2193.75
2019-03-29T09:55:14.768Z,2193.75
2019-03-29T09:56:14.762Z,2272.50
2019-03-29T09:57:15.535Z,2233.12
2019-03-29T09:58:16.578Z,2221.88
2019-03-29T09:59:16.419Z,2216.25
2019-03-29T10:00:20.806Z,2216.25
2019-03-29T10:01:15.856Z,2188.12
2019-03-29T10:02:14.719Z,2103.75
2019-03-29T10:03:14.699Z,2143.12
2019-03-29T10:04:14.671Z,2148.75
2019-03-29T10:05:14.660Z,2120.62
2019-03-29T10:06:15.402Z,2165.62
2019-03-29T10:07:14.639Z,2148.75
2019-03-29T10:08:14.625Z,2311.88
2019-03-29T10:09:14.635Z,2385.00
2019-03-29T10:10:14.604Z,2362.50
2019-03-29T10:11:14.599Z,2345.62
2019-03-29T10:12:14.583Z,2306.25
2019-03-29T10:13:14.575Z,2238.75
2019-03-29T10:14:14.564Z,2261.25
2019-03-29T10:15:14.568Z,2289.38
2019-03-29T10:16:14.566Z,2295.00
2019-03-29T10:17:14.551Z,2306.25
2019-03-29T10:18:14.604Z,2278.12
2019-03-29T10:19:14.511Z,2176.88
2019-03-29T10:20:14.525Z,2165.62
2019-03-29T10:21:17.138Z,2356.88
2019-03-29T10:22:14.477Z,2503.12
2019-03-29T10:23:14.467Z,2536.88
2019-03-29T10:24:14.455Z,2407.50
2019-03-29T10:25:19.859Z,2390.62
2019-03-29T10:26:15.449Z,2356.88
2019-03-29T10:27:14.427Z,2373.75
2019-03-29T10:28:14.412Z,855.00
2019-03-29T10:29:14.404Z,1057.50
2019-03-29T10:30:14.393Z,2379.38
2019-03-29T10:31:14.384Z,2452.50
2019-03-29T10:32:14.385Z,2413.12
2019-03-29T10:33:14.360Z,2520.00
2019-03-29T10:34:14.351Z,2576.25
2019-03-29T10:35:14.338Z,1923.75
2019-03-29T10:36:14.328Z,1546.88
2019-03-29T10:37:14.319Z,2458.12
2019-03-29T10:38:17.799Z,2520.00
2019-03-29T10:39:14.298Z,2452.50
2019-03-29T10:40:14.299Z,2441.25
2019-03-29T10:41:14.276Z,1316.25
2019-03-29T10:42:14.275Z,776.25
2019-03-29T10:43:14.255Z,905.62
2019-03-29T10:44:14.269Z,1456.88
2019-03-29T10:45:14.233Z,2081.25
2019-03-29T10:46:14.224Z,2463.75
2019-03-29T10:47:14.212Z,2576.25
2019-03-29T10:48:14.202Z,2430.00
2019-03-29T10:49:14.194Z,2514.38
2019-03-29T10:50:14.197Z,1035.00
2019-03-29T10:51:14.170Z,1141.88
2019-03-29T10:52:14.161Z,1310.62
2019-03-29T10:53:14.166Z,1254.38
2019-03-29T10:54:14.144Z,855.00
2019-03-29T10:55:14.128Z,843.75
2019-03-29T10:56:14.137Z,2261.25
2019-03-29T10:57:14.104Z,2452.50
2019-03-29T10:58:14.093Z,2536.88
2019-03-29T10:59:26.588Z,2587.50
2019-03-29T11:00:15.071Z,1991.25
2019-03-29T11:01:14.069Z,2430.00
2019-03-29T11:02:14.073Z,2430.00
2019-03-29T11:03:14.046Z,2328.75
2019-03-29T11:04:14.032Z,2323.12
2019-03-29T11:05:14.018Z,2261.25
2019-03-29T11:06:14.010Z,2238.75
2019-03-29T11:07:14.003Z,2401.88
2019-03-29T11:08:14.021Z,2553.75
2019-03-29T11:09:13.976Z,2508.75
2019-03-29T11:10:13.965Z,2486.25
2019-03-29T11:11:13.959Z,2480.62
2019-03-29T11:12:13.946Z,2396.25
2019-03-29T11:13:14.624Z,2401.88
2019-03-29T11:14:13.956Z,2356.88
2019-03-29T11:15:13.915Z,1822.50
2019-03-29T11:16:13.901Z,928.12
2019-03-29T11:17:13.891Z,635.62
2019-03-29T11:18:13.881Z,601.88
2019-03-29T11:19:13.869Z,556.88
2019-03-29T11:20:13.879Z,528.75
2019-03-29T11:21:13.851Z,517.50
2019-03-29T11:22:13.837Z,517.50
2019-03-29T11:23:13.832Z,517.50
2019-03-29T11:24:13.818Z,540.00
2019-03-29T11:25:13.810Z,540.00
2019-03-29T11:26:13.821Z,523.12
2019-03-29T11:27:13.790Z,472.50
2019-03-29T11:28:13.771Z,466.88
2019-03-29T11:29:13.763Z,466.88
2019-03-29T11:30:13.749Z,478.12
2019-03-29T11:31:13.762Z,489.38
2019-03-29T11:32:13.772Z,500.62
2019-03-29T11:33:13.817Z,511.88
2019-03-29T11:34:13.707Z,528.75
2019-03-29T11:35:13.709Z,534.38
2019-03-29T11:36:13.684Z,517.50
2019-03-29T11:37:13.674Z,506.25
2019-03-29T11:38:13.711Z,500.62
2019-03-29T11:39:13.670Z,495.00
2019-03-29T11:40:13.664Z,478.12
2019-03-29T11:41:13.634Z,455.62
2019-03-29T11:42:13.633Z,450.00
2019-03-29T11:43:26.093Z,461.25
2019-03-29T11:44:14.644Z,478.12
2019-03-29T11:45:13.593Z,495.00
2019-03-29T11:46:13.594Z,517.50
2019-03-29T11:47:13.564Z,517.50
2019-03-29T11:48:13.561Z,489.38
2019-03-29T11:49:13.539Z,511.88
2019-03-29T11:50:13.561Z,562.50
2019-03-29T11:51:19.785Z,601.88
2019-03-29T11:52:14.511Z,630.00
2019-03-29T11:53:13.497Z,652.50
2019-03-29T11:54:13.484Z,675.00
2019-03-29T11:55:13.471Z,708.75
2019-03-29T11:56:13.480Z,708.75
2019-03-29T11:57:13.447Z,720.00
2019-03-29T11:58:13.442Z,725.62
2019-03-29T11:59:13.432Z,703.12
2019-03-29T12:00:13.419Z,663.75
2019-03-29T12:01:13.404Z,658.12
2019-03-29T12:02:13.446Z,669.38
2019-03-29T12:03:13.382Z,658.12
2019-03-29T12:04:13.421Z,624.38
2019-03-29T12:05:13.360Z,601.88
2019-03-29T12:06:13.349Z,579.38
2019-03-29T12:07:13.335Z,579.38
2019-03-29T12:08:13.343Z,562.50
2019-03-29T12:09:13.312Z,556.88
2019-03-29T12:10:13.301Z,562.50
2019-03-29T12:11:13.292Z,534.38
2019-03-29T12:12:13.279Z,545.62
2019-03-29T12:13:13.268Z,585.00
2019-03-29T12:14:13.281Z,585.00
2019-03-29T12:15:13.253Z,556.88
2019-03-29T12:16:13.238Z,545.62
2019-03-29T12:17:13.227Z,534.38
2019-03-29T12:18:13.213Z,545.62
2019-03-29T12:19:13.201Z,573.75
2019-03-29T12:20:13.204Z,613.12
2019-03-29T12:21:13.175Z,618.75
2019-03-29T12:22:13.276Z,573.75
2019-03-29T12:23:13.155Z,551.25
2019-03-29T12:24:13.166Z,568.12
2019-03-29T12:25:13.128Z,573.75
2019-03-29T12:26:13.136Z,540.00
2019-03-29T12:27:13.112Z,517.50
2019-03-29T12:28:13.096Z,495.00
2019-03-29T12:29:13.088Z,495.00
2019-03-29T12:30:23.722Z,466.88
2019-03-29T12:31:14.074Z,444.38
2019-03-29T12:32:13.067Z,427.50
2019-03-29T12:33:13.037Z,466.88
2019-03-29T12:34:13.026Z,534.38
2019-03-29T12:35:13.013Z,551.25
2019-03-29T12:36:13.006Z,568.12
2019-03-29T12:37:13.008Z,601.88
2019-03-29T12:38:12.979Z,635.62
2019-03-29T12:39:12.967Z,630.00
2019-03-29T12:40:12.956Z,624.38